DEALX EDDH-EDFV
Flight info
| Callsign | DEALX |
|---|---|
| Flight time | 1h 31m |
| Altitude | 6000 |
| Route | EDFV |
| Aircraft | S22T/L-SDGRY/S |
Departure
| Time | 2026-05-05 07:37 |
|---|---|
| Airport | Hamburg Helmut Schmidt Airport (EDDH) |
Arrival
| Time | 2026-05-05 09:09 |
|---|---|
| Airport | Worms Airfield (EDFV) |
| Time | Latitude | Longitude | Altitude | Speed | Heading |
|---|---|---|---|---|---|
| 2026-05-05 07:17 | 53.62631 | 9.98638 | 33 ft | 0 kts | 242° |
| 2026-05-05 07:30 | 53.62618 | 9.98672 | 34 ft | 4 kts | 114° |
| 2026-05-05 07:30 | 53.62606 | 9.98719 | 35 ft | 4 kts | 109° |
| 2026-05-05 07:31 | 53.62584 | 9.98758 | 36 ft | 4 kts | 156° |
| 2026-05-05 07:31 | 53.62552 | 9.98786 | 37 ft | 8 kts | 141° |
| 2026-05-05 07:31 | 53.62544 | 9.98899 | 37 ft | 12 kts | 79° |
| 2026-05-05 07:31 | 53.62561 | 9.99057 | 39 ft | 14 kts | 81° |
| 2026-05-05 07:32 | 53.62578 | 9.99126 | 39 ft | 8 kts | 107° |
| 2026-05-05 07:32 | 53.62585 | 9.99277 | 37 ft | 16 kts | 78° |
| 2026-05-05 07:32 | 53.62609 | 9.99478 | 35 ft | 16 kts | 79° |
| 2026-05-05 07:32 | 53.62622 | 9.99600 | 34 ft | 0 kts | 89° |
| 2026-05-05 07:33 | 53.62625 | 9.99628 | 34 ft | 4 kts | 79° |
| 2026-05-05 07:33 | 53.62631 | 9.99690 | 34 ft | 6 kts | 79° |
| 2026-05-05 07:33 | 53.62637 | 9.99743 | 34 ft | 2 kts | 81° |
| 2026-05-05 07:33 | 53.62638 | 9.99754 | 34 ft | 1 kts | 79° |
| 2026-05-05 07:34 | 53.62638 | 9.99757 | 34 ft | 0 kts | 81° |
| 2026-05-05 07:35 | 53.62638 | 9.99758 | 34 ft | 0 kts | 77° |
| 2026-05-05 07:36 | 53.62657 | 9.99806 | 33 ft | 11 kts | 40° |
| 2026-05-05 07:36 | 53.62756 | 9.99838 | 29 ft | 17 kts | 334° |
| 2026-05-05 07:36 | 53.63012 | 9.99611 | 24 ft | 74 kts | 332° |
| 2026-05-05 07:36 | 53.63594 | 9.99106 | 173 ft | 103 kts | 334° |
| 2026-05-05 07:37 | 53.64230 | 9.98591 | 544 ft | 103 kts | 337° |
| 2026-05-05 07:37 | 53.64920 | 9.98092 | 789 ft | 115 kts | 339° |
| 2026-05-05 07:37 | 53.65617 | 9.97377 | 1028 ft | 126 kts | 313° |
| 2026-05-05 07:37 | 53.65920 | 9.95873 | 1121 ft | 149 kts | 274° |
| 2026-05-05 07:38 | 53.65562 | 9.94175 | 1252 ft | 162 kts | 236° |
| 2026-05-05 07:38 | 53.64660 | 9.92917 | 1266 ft | 175 kts | 208° |
| 2026-05-05 07:38 | 53.63564 | 9.91881 | 1284 ft | 183 kts | 210° |
| 2026-05-05 07:38 | 53.62460 | 9.90748 | 1252 ft | 187 kts | 212° |
| 2026-05-05 07:39 | 53.61318 | 9.89808 | 1220 ft | 178 kts | 192° |
| 2026-05-05 07:39 | 53.60155 | 9.90000 | 1190 ft | 168 kts | 156° |
| 2026-05-05 07:39 | 53.59112 | 9.90844 | 1168 ft | 164 kts | 152° |
| 2026-05-05 07:39 | 53.58116 | 9.91761 | 1093 ft | 164 kts | 147° |
| 2026-05-05 07:40 | 53.57147 | 9.92766 | 1055 ft | 163 kts | 146° |
| 2026-05-05 07:40 | 53.56210 | 9.93769 | 1023 ft | 161 kts | 142° |
| 2026-05-05 07:40 | 53.55329 | 9.94890 | 1019 ft | 158 kts | 138° |
| 2026-05-05 07:40 | 53.54476 | 9.96028 | 1035 ft | 154 kts | 138° |
| 2026-05-05 07:41 | 53.53636 | 9.97131 | 1061 ft | 152 kts | 140° |
| 2026-05-05 07:41 | 53.52772 | 9.98170 | 1068 ft | 152 kts | 142° |
| 2026-05-05 07:41 | 53.51884 | 9.99139 | 1093 ft | 151 kts | 144° |
| 2026-05-05 07:41 | 53.50901 | 9.99719 | 1083 ft | 156 kts | 171° |
| 2026-05-05 07:42 | 53.49797 | 9.99628 | 1011 ft | 162 kts | 189° |
| 2026-05-05 07:42 | 53.48702 | 9.99243 | 1042 ft | 159 kts | 192° |
| 2026-05-05 07:42 | 53.47620 | 9.98920 | 1040 ft | 158 kts | 187° |
| 2026-05-05 07:42 | 53.46520 | 9.98636 | 983 ft | 161 kts | 186° |
| 2026-05-05 07:43 | 53.45423 | 9.98435 | 1008 ft | 158 kts | 184° |
| 2026-05-05 07:43 | 53.44326 | 9.98337 | 1004 ft | 157 kts | 179° |
| 2026-05-05 07:43 | 53.43221 | 9.98334 | 971 ft | 159 kts | 178° |
| 2026-05-05 07:43 | 53.42110 | 9.98285 | 940 ft | 160 kts | 181° |
| 2026-05-05 07:44 | 53.41012 | 9.98197 | 962 ft | 158 kts | 179° |
| 2026-05-05 07:44 | 53.39889 | 9.98149 | 900 ft | 161 kts | 180° |
| 2026-05-05 07:44 | 53.38774 | 9.98061 | 891 ft | 160 kts | 182° |
| 2026-05-05 07:44 | 53.37665 | 9.97934 | 893 ft | 160 kts | 182° |
| 2026-05-05 07:45 | 53.36538 | 9.97800 | 951 ft | 161 kts | 182° |
| 2026-05-05 07:45 | 53.35417 | 9.97661 | 1050 ft | 161 kts | 182° |
| 2026-05-05 07:45 | 53.34296 | 9.97515 | 1092 ft | 163 kts | 182° |
| 2026-05-05 07:45 | 53.33175 | 9.97176 | 1097 ft | 168 kts | 194° |
| 2026-05-05 07:46 | 53.32033 | 9.96642 | 1092 ft | 171 kts | 195° |
| 2026-05-05 07:46 | 53.30889 | 9.96096 | 1093 ft | 173 kts | 195° |
| 2026-05-05 07:46 | 53.29728 | 9.95544 | 1088 ft | 174 kts | 194° |
| 2026-05-05 07:46 | 53.28558 | 9.94991 | 1089 ft | 174 kts | 194° |
| 2026-05-05 07:47 | 53.27389 | 9.94441 | 1090 ft | 174 kts | 194° |
| 2026-05-05 07:47 | 53.26221 | 9.93893 | 1089 ft | 175 kts | 194° |
| 2026-05-05 07:47 | 53.25040 | 9.93339 | 1080 ft | 176 kts | 194° |
| 2026-05-05 07:47 | 53.23864 | 9.92789 | 1077 ft | 176 kts | 194° |
| 2026-05-05 07:48 | 53.23090 | 9.92427 | 1080 ft | 175 kts | 194° |
| 2026-05-05 07:48 | 53.21905 | 9.91872 | 1079 ft | 175 kts | 194° |
| 2026-05-05 07:48 | 53.20335 | 9.91139 | 1077 ft | 176 kts | 194° |
| 2026-05-05 07:48 | 53.19161 | 9.90591 | 1073 ft | 176 kts | 194° |
| 2026-05-05 07:49 | 53.17984 | 9.90044 | 1074 ft | 176 kts | 194° |
| 2026-05-05 07:49 | 53.16822 | 9.89503 | 1072 ft | 175 kts | 194° |
| 2026-05-05 07:49 | 53.15645 | 9.88956 | 1071 ft | 175 kts | 194° |
| 2026-05-05 07:49 | 53.14468 | 9.88408 | 1074 ft | 175 kts | 194° |
| 2026-05-05 07:50 | 53.13294 | 9.87862 | 1072 ft | 176 kts | 194° |
| 2026-05-05 07:50 | 53.12110 | 9.87312 | 1067 ft | 176 kts | 194° |
| 2026-05-05 07:50 | 53.10932 | 9.86766 | 1067 ft | 176 kts | 194° |
| 2026-05-05 07:50 | 53.09764 | 9.86223 | 1066 ft | 176 kts | 194° |
| 2026-05-05 07:51 | 53.08577 | 9.85674 | 1062 ft | 176 kts | 194° |
| 2026-05-05 07:51 | 53.07416 | 9.85136 | 1066 ft | 175 kts | 194° |
| 2026-05-05 07:51 | 53.06244 | 9.84591 | 1068 ft | 175 kts | 194° |
| 2026-05-05 07:51 | 53.05054 | 9.84041 | 1153 ft | 177 kts | 194° |
| 2026-05-05 07:52 | 53.03870 | 9.83494 | 1283 ft | 176 kts | 194° |
| 2026-05-05 07:52 | 53.02700 | 9.82953 | 1393 ft | 177 kts | 194° |
| 2026-05-05 07:52 | 53.01516 | 9.82406 | 1504 ft | 177 kts | 194° |
| 2026-05-05 07:52 | 53.00331 | 9.81859 | 1610 ft | 178 kts | 194° |
| 2026-05-05 07:53 | 52.99139 | 9.81308 | 1716 ft | 178 kts | 194° |
| 2026-05-05 07:53 | 52.97932 | 9.80750 | 1816 ft | 179 kts | 194° |
| 2026-05-05 07:53 | 52.96735 | 9.80200 | 1915 ft | 180 kts | 194° |
| 2026-05-05 07:53 | 52.95504 | 9.79635 | 1966 ft | 184 kts | 194° |
| 2026-05-05 07:54 | 52.94271 | 9.79068 | 1970 ft | 188 kts | 194° |
| 2026-05-05 07:54 | 52.92996 | 9.78481 | 1965 ft | 190 kts | 194° |
| 2026-05-05 07:54 | 52.91714 | 9.77890 | 1966 ft | 192 kts | 195° |
| 2026-05-05 07:54 | 52.90427 | 9.77295 | 1965 ft | 191 kts | 194° |
| 2026-05-05 07:55 | 52.89175 | 9.76719 | 1964 ft | 185 kts | 195° |
| 2026-05-05 07:55 | 52.87949 | 9.76157 | 1965 ft | 181 kts | 195° |
| 2026-05-05 07:55 | 52.86755 | 9.75608 | 1966 ft | 178 kts | 195° |
| 2026-05-05 07:55 | 52.85561 | 9.75061 | 1963 ft | 176 kts | 195° |
| 2026-05-05 07:56 | 52.84382 | 9.74522 | 1967 ft | 175 kts | 195° |
| 2026-05-05 07:56 | 52.83215 | 9.73988 | 1963 ft | 175 kts | 195° |
| 2026-05-05 07:56 | 52.82048 | 9.73454 | 1964 ft | 174 kts | 195° |
| 2026-05-05 07:56 | 52.80872 | 9.72914 | 1968 ft | 174 kts | 195° |
| 2026-05-05 07:57 | 52.79706 | 9.72380 | 1968 ft | 175 kts | 195° |
| 2026-05-05 07:57 | 52.78536 | 9.71845 | 1968 ft | 175 kts | 195° |
| 2026-05-05 07:57 | 52.77359 | 9.71309 | 1967 ft | 175 kts | 195° |
| 2026-05-05 07:57 | 52.76201 | 9.70780 | 1965 ft | 174 kts | 195° |
| 2026-05-05 07:58 | 52.75023 | 9.70242 | 1968 ft | 174 kts | 195° |
| 2026-05-05 07:58 | 52.73860 | 9.69712 | 1966 ft | 174 kts | 195° |
| 2026-05-05 07:58 | 52.72688 | 9.69180 | 1967 ft | 174 kts | 195° |
| 2026-05-05 07:58 | 52.71532 | 9.68652 | 1967 ft | 173 kts | 195° |
| 2026-05-05 07:59 | 52.70368 | 9.68121 | 1965 ft | 174 kts | 195° |
| 2026-05-05 07:59 | 52.69208 | 9.67595 | 1963 ft | 174 kts | 195° |
| 2026-05-05 07:59 | 52.68043 | 9.67064 | 1958 ft | 174 kts | 195° |
| 2026-05-05 07:59 | 52.66875 | 9.66533 | 1960 ft | 174 kts | 195° |
| 2026-05-05 08:00 | 52.65695 | 9.65999 | 1961 ft | 174 kts | 195° |
| 2026-05-05 08:00 | 52.64531 | 9.65469 | 1961 ft | 174 kts | 195° |
| 2026-05-05 08:00 | 52.63374 | 9.64944 | 1963 ft | 173 kts | 195° |
| 2026-05-05 08:00 | 52.62217 | 9.64416 | 1966 ft | 173 kts | 195° |
| 2026-05-05 08:01 | 52.61052 | 9.63888 | 1963 ft | 173 kts | 195° |
| 2026-05-05 08:01 | 52.59894 | 9.63367 | 1961 ft | 173 kts | 196° |
| 2026-05-05 08:01 | 52.58740 | 9.62847 | 1962 ft | 173 kts | 195° |
| 2026-05-05 08:01 | 52.57587 | 9.62323 | 1962 ft | 172 kts | 197° |
| 2026-05-05 08:02 | 52.56430 | 9.61796 | 1953 ft | 172 kts | 197° |
| 2026-05-05 08:02 | 52.55266 | 9.61272 | 1960 ft | 172 kts | 196° |
| 2026-05-05 08:02 | 52.54119 | 9.60750 | 1965 ft | 172 kts | 196° |
| 2026-05-05 08:02 | 52.52963 | 9.60230 | 1965 ft | 172 kts | 196° |
| 2026-05-05 08:03 | 52.51798 | 9.59706 | 1966 ft | 172 kts | 195° |
| 2026-05-05 08:03 | 52.50641 | 9.59182 | 1965 ft | 172 kts | 196° |
| 2026-05-05 08:03 | 52.49495 | 9.58665 | 1967 ft | 172 kts | 196° |
| 2026-05-05 08:03 | 52.48346 | 9.58151 | 1969 ft | 172 kts | 196° |
| 2026-05-05 08:04 | 52.47185 | 9.57627 | 1971 ft | 171 kts | 195° |
| 2026-05-05 08:04 | 52.46030 | 9.57106 | 1967 ft | 172 kts | 197° |
| 2026-05-05 08:04 | 52.44879 | 9.56588 | 1967 ft | 172 kts | 196° |
| 2026-05-05 08:04 | 52.43734 | 9.56072 | 1974 ft | 171 kts | 195° |
| 2026-05-05 08:05 | 52.42582 | 9.55555 | 1962 ft | 171 kts | 196° |
| 2026-05-05 08:05 | 52.41429 | 9.55036 | 1966 ft | 171 kts | 196° |
| 2026-05-05 08:05 | 52.40288 | 9.54522 | 1968 ft | 171 kts | 196° |
| 2026-05-05 08:05 | 52.39143 | 9.54007 | 1959 ft | 172 kts | 195° |
| 2026-05-05 08:06 | 52.37966 | 9.53484 | 2072 ft | 174 kts | 196° |
| 2026-05-05 08:06 | 52.36803 | 9.52966 | 2297 ft | 172 kts | 197° |
| 2026-05-05 08:06 | 52.35667 | 9.52462 | 2518 ft | 170 kts | 197° |
| 2026-05-05 08:06 | 52.34534 | 9.51953 | 2747 ft | 168 kts | 197° |
| 2026-05-05 08:07 | 52.33409 | 9.51450 | 2948 ft | 167 kts | 197° |
| 2026-05-05 08:07 | 52.32299 | 9.50952 | 3156 ft | 165 kts | 197° |
| 2026-05-05 08:07 | 52.31196 | 9.50459 | 3352 ft | 165 kts | 197° |
| 2026-05-05 08:07 | 52.30086 | 9.49966 | 3545 ft | 164 kts | 197° |
| 2026-05-05 08:08 | 52.28987 | 9.49473 | 3684 ft | 166 kts | 197° |
| 2026-05-05 08:08 | 52.28243 | 9.49139 | 3793 ft | 166 kts | 198° |
| 2026-05-05 08:08 | 52.26747 | 9.48466 | 4017 ft | 166 kts | 197° |
| 2026-05-05 08:08 | 52.25621 | 9.47970 | 4168 ft | 167 kts | 197° |
| 2026-05-05 08:09 | 52.24509 | 9.47473 | 4330 ft | 167 kts | 197° |
| 2026-05-05 08:09 | 52.23751 | 9.47135 | 4440 ft | 167 kts | 198° |
| 2026-05-05 08:09 | 52.22256 | 9.46469 | 4646 ft | 167 kts | 198° |
| 2026-05-05 08:09 | 52.21151 | 9.45976 | 4834 ft | 165 kts | 198° |
| 2026-05-05 08:10 | 52.20040 | 9.45480 | 4971 ft | 167 kts | 197° |
| 2026-05-05 08:10 | 52.19289 | 9.45149 | 5074 ft | 167 kts | 199° |
| 2026-05-05 08:10 | 52.17798 | 9.44484 | 5255 ft | 167 kts | 197° |
| 2026-05-05 08:10 | 52.16661 | 9.43980 | 5365 ft | 169 kts | 197° |
| 2026-05-05 08:11 | 52.15530 | 9.43475 | 5511 ft | 168 kts | 197° |
| 2026-05-05 08:11 | 52.14403 | 9.42982 | 5656 ft | 167 kts | 198° |
| 2026-05-05 08:11 | 52.13278 | 9.42482 | 5770 ft | 168 kts | 198° |
| 2026-05-05 08:11 | 52.12149 | 9.41981 | 5892 ft | 168 kts | 197° |
| 2026-05-05 08:12 | 52.11026 | 9.41483 | 5998 ft | 168 kts | 198° |
| 2026-05-05 08:12 | 52.09905 | 9.40988 | 6114 ft | 168 kts | 197° |
| 2026-05-05 08:12 | 52.08780 | 9.40490 | 6215 ft | 168 kts | 197° |
| 2026-05-05 08:12 | 52.07657 | 9.39993 | 6316 ft | 168 kts | 197° |
| 2026-05-05 08:13 | 52.06524 | 9.39492 | 6412 ft | 169 kts | 197° |
| 2026-05-05 08:13 | 52.05398 | 9.38995 | 6521 ft | 168 kts | 197° |
| 2026-05-05 08:13 | 52.04256 | 9.38490 | 6614 ft | 169 kts | 197° |
| 2026-05-05 08:13 | 52.03138 | 9.37997 | 6712 ft | 169 kts | 197° |
| 2026-05-05 08:14 | 52.02005 | 9.37499 | 6810 ft | 169 kts | 197° |
| 2026-05-05 08:14 | 52.00860 | 9.36995 | 6899 ft | 169 kts | 198° |
| 2026-05-05 08:14 | 51.99724 | 9.36496 | 6992 ft | 169 kts | 198° |
| 2026-05-05 08:14 | 51.98582 | 9.35993 | 7086 ft | 169 kts | 198° |
| 2026-05-05 08:15 | 51.97461 | 9.35497 | 7167 ft | 170 kts | 198° |
| 2026-05-05 08:15 | 51.96305 | 9.34990 | 7266 ft | 169 kts | 197° |
| 2026-05-05 08:15 | 51.95177 | 9.34493 | 7347 ft | 170 kts | 197° |
| 2026-05-05 08:15 | 51.94038 | 9.33992 | 7433 ft | 170 kts | 197° |
| 2026-05-05 08:16 | 51.92892 | 9.33489 | 7520 ft | 170 kts | 197° |
| 2026-05-05 08:16 | 51.91750 | 9.32987 | 7583 ft | 171 kts | 197° |
| 2026-05-05 08:16 | 51.90606 | 9.32485 | 7637 ft | 171 kts | 197° |
| 2026-05-05 08:16 | 51.89447 | 9.31978 | 7703 ft | 171 kts | 197° |
| 2026-05-05 08:17 | 51.88312 | 9.31480 | 7771 ft | 171 kts | 197° |
| 2026-05-05 08:17 | 51.87154 | 9.30973 | 7837 ft | 171 kts | 197° |
| 2026-05-05 08:17 | 51.86011 | 9.30473 | 7899 ft | 171 kts | 197° |
| 2026-05-05 08:17 | 51.84851 | 9.29965 | 7929 ft | 173 kts | 197° |
| 2026-05-05 08:18 | 51.83688 | 9.29456 | 7940 ft | 175 kts | 197° |
| 2026-05-05 08:18 | 51.82505 | 9.28940 | 7938 ft | 177 kts | 197° |
| 2026-05-05 08:18 | 51.81309 | 9.28417 | 7937 ft | 179 kts | 197° |
| 2026-05-05 08:18 | 51.80103 | 9.27890 | 7933 ft | 179 kts | 197° |
| 2026-05-05 08:19 | 51.78914 | 9.27370 | 7932 ft | 180 kts | 197° |
| 2026-05-05 08:19 | 51.77708 | 9.26842 | 7932 ft | 180 kts | 197° |
| 2026-05-05 08:19 | 51.76902 | 9.26490 | 7932 ft | 180 kts | 197° |
| 2026-05-05 08:19 | 51.75281 | 9.25784 | 7931 ft | 180 kts | 197° |
| 2026-05-05 08:20 | 51.74086 | 9.25264 | 7937 ft | 180 kts | 197° |
| 2026-05-05 08:20 | 51.72865 | 9.24733 | 7938 ft | 180 kts | 197° |
| 2026-05-05 08:20 | 51.71671 | 9.24215 | 7939 ft | 180 kts | 197° |
| 2026-05-05 08:20 | 51.70456 | 9.23687 | 7937 ft | 180 kts | 197° |
| 2026-05-05 08:21 | 51.69241 | 9.23159 | 7940 ft | 180 kts | 197° |
| 2026-05-05 08:21 | 51.68038 | 9.22637 | 7944 ft | 180 kts | 197° |
| 2026-05-05 08:21 | 51.66842 | 9.22118 | 7951 ft | 180 kts | 197° |
| 2026-05-05 08:21 | 51.65636 | 9.21596 | 7954 ft | 180 kts | 197° |
| 2026-05-05 08:22 | 51.64431 | 9.21074 | 7952 ft | 180 kts | 197° |
| 2026-05-05 08:22 | 51.63214 | 9.20546 | 7950 ft | 180 kts | 197° |
| 2026-05-05 08:22 | 51.62007 | 9.20023 | 7950 ft | 179 kts | 197° |
| 2026-05-05 08:22 | 51.60813 | 9.19507 | 7951 ft | 179 kts | 197° |
| 2026-05-05 08:23 | 51.59613 | 9.18987 | 7954 ft | 179 kts | 197° |
| 2026-05-05 08:23 | 51.58396 | 9.18460 | 7958 ft | 180 kts | 197° |
| 2026-05-05 08:23 | 51.57193 | 9.17941 | 7957 ft | 180 kts | 196° |
| 2026-05-05 08:23 | 51.55991 | 9.17422 | 7954 ft | 180 kts | 196° |
| 2026-05-05 08:24 | 51.54779 | 9.16899 | 7956 ft | 180 kts | 196° |
| 2026-05-05 08:24 | 51.53571 | 9.16379 | 7957 ft | 180 kts | 197° |
| 2026-05-05 08:24 | 51.52356 | 9.15856 | 7954 ft | 180 kts | 196° |
| 2026-05-05 08:24 | 51.51147 | 9.15335 | 7954 ft | 180 kts | 196° |
| 2026-05-05 08:25 | 51.50348 | 9.14990 | 7951 ft | 180 kts | 196° |
| 2026-05-05 08:25 | 51.48726 | 9.14292 | 7949 ft | 180 kts | 196° |
| 2026-05-05 08:25 | 51.47518 | 9.13773 | 7951 ft | 180 kts | 196° |
| 2026-05-05 08:25 | 51.46302 | 9.13250 | 7948 ft | 180 kts | 196° |
| 2026-05-05 08:26 | 51.45101 | 9.12734 | 7948 ft | 180 kts | 197° |
| 2026-05-05 08:26 | 51.43902 | 9.12219 | 7943 ft | 179 kts | 197° |
| 2026-05-05 08:26 | 51.42698 | 9.11703 | 7950 ft | 179 kts | 197° |
| 2026-05-05 08:26 | 51.41493 | 9.11186 | 7946 ft | 179 kts | 196° |
| 2026-05-05 08:27 | 51.40273 | 9.10662 | 7946 ft | 179 kts | 196° |
| 2026-05-05 08:27 | 51.39069 | 9.10146 | 7946 ft | 180 kts | 196° |
| 2026-05-05 08:27 | 51.37862 | 9.09628 | 7945 ft | 180 kts | 196° |
| 2026-05-05 08:27 | 51.36668 | 9.09118 | 7946 ft | 180 kts | 196° |
| 2026-05-05 08:28 | 51.35459 | 9.08601 | 7947 ft | 180 kts | 196° |
| 2026-05-05 08:28 | 51.34241 | 9.08080 | 7946 ft | 180 kts | 196° |
| 2026-05-05 08:28 | 51.33032 | 9.07563 | 7945 ft | 180 kts | 196° |
| 2026-05-05 08:28 | 51.31817 | 9.07045 | 7945 ft | 180 kts | 196° |
| 2026-05-05 08:29 | 51.30618 | 9.06533 | 7942 ft | 180 kts | 196° |
| 2026-05-05 08:29 | 51.29403 | 9.06016 | 7941 ft | 179 kts | 196° |
| 2026-05-05 08:29 | 51.28196 | 9.05501 | 7940 ft | 179 kts | 196° |
| 2026-05-05 08:30 | 51.25794 | 9.04477 | 7941 ft | 179 kts | 196° |
| 2026-05-05 08:30 | 51.24590 | 9.03965 | 7942 ft | 179 kts | 196° |
| 2026-05-05 08:30 | 51.23402 | 9.03459 | 7942 ft | 179 kts | 196° |
| 2026-05-05 08:30 | 51.22185 | 9.02941 | 7941 ft | 179 kts | 196° |
| 2026-05-05 08:31 | 51.20982 | 9.02431 | 7940 ft | 179 kts | 196° |
| 2026-05-05 08:31 | 51.19790 | 9.01924 | 7937 ft | 179 kts | 196° |
| 2026-05-05 08:31 | 51.18571 | 9.01407 | 7939 ft | 180 kts | 196° |
| 2026-05-05 08:31 | 51.17379 | 9.00902 | 7937 ft | 180 kts | 196° |
| 2026-05-05 08:32 | 51.16159 | 9.00384 | 7933 ft | 180 kts | 196° |
| 2026-05-05 08:32 | 51.14962 | 8.99875 | 7927 ft | 180 kts | 196° |
| 2026-05-05 08:32 | 51.13740 | 8.99357 | 7925 ft | 180 kts | 195° |
| 2026-05-05 08:32 | 51.12530 | 8.98846 | 7927 ft | 180 kts | 196° |
| 2026-05-05 08:33 | 51.11324 | 8.98337 | 7924 ft | 180 kts | 196° |
| 2026-05-05 08:33 | 51.10120 | 8.97828 | 7920 ft | 179 kts | 196° |
| 2026-05-05 08:33 | 51.08909 | 8.97316 | 7918 ft | 179 kts | 196° |
| 2026-05-05 08:33 | 51.08114 | 8.96980 | 7920 ft | 179 kts | 196° |
| 2026-05-05 08:34 | 51.06513 | 8.96303 | 7918 ft | 179 kts | 195° |
| 2026-05-05 08:34 | 51.05315 | 8.95797 | 7918 ft | 179 kts | 195° |
| 2026-05-05 08:34 | 51.04105 | 8.95287 | 7919 ft | 179 kts | 195° |
| 2026-05-05 08:34 | 51.02911 | 8.94784 | 7918 ft | 179 kts | 195° |
| 2026-05-05 08:35 | 51.01706 | 8.94276 | 7915 ft | 179 kts | 195° |
| 2026-05-05 08:35 | 51.00500 | 8.93769 | 7915 ft | 179 kts | 195° |
| 2026-05-05 08:35 | 50.99290 | 8.93260 | 7916 ft | 179 kts | 195° |
| 2026-05-05 08:35 | 50.98086 | 8.92755 | 7916 ft | 179 kts | 195° |
| 2026-05-05 08:36 | 50.96891 | 8.92252 | 7916 ft | 179 kts | 195° |
| 2026-05-05 08:36 | 50.95679 | 8.91742 | 7914 ft | 179 kts | 195° |
| 2026-05-05 08:36 | 50.94476 | 8.91236 | 7913 ft | 179 kts | 195° |
| 2026-05-05 08:36 | 50.93280 | 8.90734 | 7913 ft | 179 kts | 195° |
| 2026-05-05 08:37 | 50.92074 | 8.90228 | 7915 ft | 179 kts | 195° |
| 2026-05-05 08:37 | 50.90876 | 8.89726 | 7913 ft | 179 kts | 195° |
| 2026-05-05 08:37 | 50.89673 | 8.89222 | 7914 ft | 179 kts | 195° |
| 2026-05-05 08:37 | 50.88475 | 8.88720 | 7914 ft | 179 kts | 195° |
| 2026-05-05 08:38 | 50.87266 | 8.88214 | 7911 ft | 179 kts | 195° |
| 2026-05-05 08:38 | 50.86065 | 8.87710 | 7910 ft | 179 kts | 195° |
| 2026-05-05 08:38 | 50.84862 | 8.87208 | 7914 ft | 179 kts | 195° |
| 2026-05-05 08:38 | 50.83650 | 8.86701 | 7915 ft | 180 kts | 195° |
| 2026-05-05 08:39 | 50.82457 | 8.86204 | 7916 ft | 180 kts | 195° |
| 2026-05-05 08:39 | 50.81245 | 8.85698 | 7920 ft | 179 kts | 195° |
| 2026-05-05 08:39 | 50.80048 | 8.85198 | 7919 ft | 179 kts | 195° |
| 2026-05-05 08:39 | 50.78835 | 8.84690 | 7933 ft | 179 kts | 195° |
| 2026-05-05 08:40 | 50.77626 | 8.84189 | 7914 ft | 180 kts | 195° |
| 2026-05-05 08:40 | 50.76428 | 8.83693 | 7929 ft | 179 kts | 195° |
| 2026-05-05 08:40 | 50.75224 | 8.83191 | 7931 ft | 179 kts | 196° |
| 2026-05-05 08:40 | 50.74016 | 8.82681 | 7921 ft | 180 kts | 195° |
| 2026-05-05 08:41 | 50.72799 | 8.82175 | 7938 ft | 180 kts | 195° |
| 2026-05-05 08:41 | 50.71599 | 8.81680 | 7930 ft | 180 kts | 195° |
| 2026-05-05 08:41 | 50.70379 | 8.81173 | 7943 ft | 180 kts | 197° |
| 2026-05-05 08:41 | 50.69172 | 8.80668 | 7936 ft | 181 kts | 196° |
| 2026-05-05 08:42 | 50.67960 | 8.80169 | 7929 ft | 180 kts | 195° |
| 2026-05-05 08:42 | 50.66742 | 8.79664 | 7931 ft | 180 kts | 195° |
| 2026-05-05 08:42 | 50.65537 | 8.79162 | 7941 ft | 180 kts | 195° |
| 2026-05-05 08:42 | 50.64320 | 8.78661 | 7933 ft | 180 kts | 195° |
| 2026-05-05 08:43 | 50.63102 | 8.78154 | 7938 ft | 180 kts | 195° |
| 2026-05-05 08:43 | 50.61903 | 8.77658 | 7932 ft | 180 kts | 195° |
| 2026-05-05 08:43 | 50.60690 | 8.77156 | 7925 ft | 180 kts | 195° |
| 2026-05-05 08:43 | 50.59487 | 8.76659 | 7925 ft | 180 kts | 194° |
| 2026-05-05 08:44 | 50.58276 | 8.76156 | 7931 ft | 180 kts | 196° |
| 2026-05-05 08:44 | 50.57058 | 8.75659 | 7924 ft | 179 kts | 195° |
| 2026-05-05 08:44 | 50.55852 | 8.75158 | 7914 ft | 179 kts | 195° |
| 2026-05-05 08:44 | 50.54649 | 8.74662 | 7940 ft | 178 kts | 197° |
| 2026-05-05 08:45 | 50.53458 | 8.74169 | 7940 ft | 179 kts | 195° |
| 2026-05-05 08:45 | 50.52246 | 8.73671 | 7929 ft | 179 kts | 194° |
| 2026-05-05 08:45 | 50.51037 | 8.73172 | 7927 ft | 179 kts | 195° |
| 2026-05-05 08:45 | 50.49844 | 8.72679 | 7932 ft | 179 kts | 195° |
| 2026-05-05 08:46 | 50.48630 | 8.72180 | 7924 ft | 179 kts | 195° |
| 2026-05-05 08:46 | 50.47430 | 8.71689 | 7940 ft | 179 kts | 195° |
| 2026-05-05 08:46 | 50.46226 | 8.71195 | 7931 ft | 179 kts | 195° |
| 2026-05-05 08:46 | 50.45025 | 8.70698 | 7931 ft | 179 kts | 195° |
| 2026-05-05 08:47 | 50.43813 | 8.70202 | 7937 ft | 180 kts | 195° |
| 2026-05-05 08:47 | 50.42598 | 8.69704 | 7927 ft | 180 kts | 195° |
| 2026-05-05 08:47 | 50.41382 | 8.69206 | 7928 ft | 180 kts | 195° |
| 2026-05-05 08:47 | 50.40168 | 8.68708 | 7921 ft | 180 kts | 195° |
| 2026-05-05 08:48 | 50.38963 | 8.68214 | 7920 ft | 180 kts | 195° |
| 2026-05-05 08:48 | 50.37749 | 8.67716 | 7920 ft | 180 kts | 195° |
| 2026-05-05 08:48 | 50.36548 | 8.67224 | 7918 ft | 180 kts | 195° |
| 2026-05-05 08:48 | 50.35326 | 8.66724 | 7918 ft | 180 kts | 195° |
| 2026-05-05 08:49 | 50.34121 | 8.66230 | 7919 ft | 180 kts | 195° |
| 2026-05-05 08:49 | 50.32903 | 8.65734 | 7920 ft | 180 kts | 195° |
| 2026-05-05 08:49 | 50.31698 | 8.65240 | 7912 ft | 181 kts | 195° |
| 2026-05-05 08:49 | 50.30483 | 8.64743 | 7912 ft | 180 kts | 195° |
| 2026-05-05 08:50 | 50.29268 | 8.64249 | 7911 ft | 180 kts | 195° |
| 2026-05-05 08:50 | 50.28054 | 8.63755 | 7914 ft | 180 kts | 195° |
| 2026-05-05 08:50 | 50.26844 | 8.63261 | 7919 ft | 180 kts | 195° |
| 2026-05-05 08:50 | 50.25640 | 8.62772 | 7914 ft | 180 kts | 195° |
| 2026-05-05 08:51 | 50.24427 | 8.62277 | 7912 ft | 179 kts | 195° |
| 2026-05-05 08:51 | 50.23210 | 8.61782 | 7914 ft | 179 kts | 195° |
| 2026-05-05 08:51 | 50.22008 | 8.61292 | 7915 ft | 179 kts | 195° |
| 2026-05-05 08:51 | 50.20806 | 8.60806 | 7915 ft | 179 kts | 195° |
| 2026-05-05 08:52 | 50.19605 | 8.60317 | 7913 ft | 178 kts | 195° |
| 2026-05-05 08:52 | 50.18401 | 8.59826 | 7913 ft | 177 kts | 195° |
| 2026-05-05 08:52 | 50.17205 | 8.59341 | 7926 ft | 178 kts | 195° |
| 2026-05-05 08:52 | 50.16008 | 8.58856 | 7929 ft | 178 kts | 195° |
| 2026-05-05 08:53 | 50.14823 | 8.58375 | 7932 ft | 178 kts | 195° |
| 2026-05-05 08:53 | 50.13621 | 8.57888 | 7932 ft | 179 kts | 195° |
| 2026-05-05 08:53 | 50.12411 | 8.57398 | 7931 ft | 179 kts | 195° |
| 2026-05-05 08:53 | 50.11209 | 8.56912 | 7930 ft | 179 kts | 195° |
| 2026-05-05 08:54 | 50.09988 | 8.56417 | 7927 ft | 179 kts | 195° |
| 2026-05-05 08:54 | 50.08782 | 8.55929 | 7930 ft | 179 kts | 195° |
| 2026-05-05 08:54 | 50.07574 | 8.55443 | 7928 ft | 179 kts | 195° |
| 2026-05-05 08:54 | 50.06371 | 8.54961 | 7928 ft | 179 kts | 194° |
| 2026-05-05 08:55 | 50.05168 | 8.54478 | 7917 ft | 179 kts | 194° |
| 2026-05-05 08:55 | 50.03972 | 8.53997 | 7922 ft | 178 kts | 195° |
| 2026-05-05 08:55 | 50.02760 | 8.53508 | 7925 ft | 179 kts | 195° |
| 2026-05-05 08:55 | 50.01556 | 8.53024 | 7923 ft | 179 kts | 195° |
| 2026-05-05 08:56 | 50.00359 | 8.52541 | 7925 ft | 179 kts | 195° |
| 2026-05-05 08:56 | 49.99143 | 8.52053 | 7925 ft | 179 kts | 195° |
| 2026-05-05 08:56 | 49.97944 | 8.51569 | 7924 ft | 180 kts | 194° |
| 2026-05-05 08:56 | 49.96722 | 8.51075 | 7928 ft | 180 kts | 194° |
| 2026-05-05 08:57 | 49.95521 | 8.50595 | 7936 ft | 180 kts | 194° |
| 2026-05-05 08:57 | 49.94311 | 8.50109 | 7931 ft | 180 kts | 195° |
| 2026-05-05 08:57 | 49.93087 | 8.49616 | 7936 ft | 180 kts | 195° |
| 2026-05-05 08:57 | 49.91891 | 8.49136 | 7937 ft | 179 kts | 195° |
| 2026-05-05 08:58 | 49.90675 | 8.48648 | 7938 ft | 180 kts | 195° |
| 2026-05-05 08:58 | 49.89467 | 8.48164 | 7941 ft | 180 kts | 195° |
| 2026-05-05 08:58 | 49.88264 | 8.47681 | 7943 ft | 179 kts | 195° |
| 2026-05-05 08:58 | 49.87066 | 8.47200 | 7839 ft | 177 kts | 195° |
| 2026-05-05 08:59 | 49.85875 | 8.46721 | 7631 ft | 178 kts | 195° |
| 2026-05-05 08:59 | 49.84674 | 8.46240 | 7393 ft | 180 kts | 195° |
| 2026-05-05 08:59 | 49.83471 | 8.45758 | 7096 ft | 178 kts | 195° |
| 2026-05-05 08:59 | 49.82275 | 8.45278 | 6735 ft | 179 kts | 195° |
| 2026-05-05 09:00 | 49.81061 | 8.44794 | 6398 ft | 179 kts | 195° |
| 2026-05-05 09:00 | 49.79859 | 8.44314 | 6080 ft | 179 kts | 195° |
| 2026-05-05 09:00 | 49.78665 | 8.43837 | 5754 ft | 178 kts | 195° |
| 2026-05-05 09:00 | 49.77475 | 8.43363 | 5417 ft | 178 kts | 195° |
| 2026-05-05 09:01 | 49.76264 | 8.42880 | 5077 ft | 178 kts | 195° |
| 2026-05-05 09:01 | 49.75067 | 8.42403 | 4741 ft | 178 kts | 195° |
| 2026-05-05 09:01 | 49.73880 | 8.41930 | 4402 ft | 178 kts | 196° |
| 2026-05-05 09:01 | 49.72639 | 8.41701 | 4063 ft | 179 kts | 184° |
| 2026-05-05 09:02 | 49.71400 | 8.41671 | 3744 ft | 178 kts | 182° |
| 2026-05-05 09:02 | 49.70171 | 8.41658 | 3419 ft | 178 kts | 182° |
| 2026-05-05 09:02 | 49.68938 | 8.41732 | 3099 ft | 177 kts | 179° |
| 2026-05-05 09:02 | 49.67719 | 8.41853 | 2789 ft | 176 kts | 179° |
| 2026-05-05 09:03 | 49.66507 | 8.41975 | 2482 ft | 175 kts | 178° |
| 2026-05-05 09:03 | 49.65279 | 8.42096 | 2166 ft | 175 kts | 178° |
| 2026-05-05 09:03 | 49.64085 | 8.42210 | 1860 ft | 174 kts | 178° |
| 2026-05-05 09:03 | 49.62893 | 8.42393 | 1588 ft | 168 kts | 175° |
| 2026-05-05 09:04 | 49.61794 | 8.42197 | 1358 ft | 149 kts | 211° |
| 2026-05-05 09:04 | 49.61198 | 8.41130 | 1219 ft | 123 kts | 237° |
| 2026-05-05 09:04 | 49.60768 | 8.40116 | 1113 ft | 106 kts | 239° |
| 2026-05-05 09:04 | 49.60371 | 8.39245 | 1064 ft | 100 kts | 233° |
| 2026-05-05 09:05 | 49.59928 | 8.38367 | 1108 ft | 108 kts | 233° |
| 2026-05-05 09:05 | 49.59417 | 8.37520 | 1213 ft | 110 kts | 210° |
| 2026-05-05 09:05 | 49.58658 | 8.37637 | 1167 ft | 125 kts | 139° |
| 2026-05-05 09:05 | 49.58444 | 8.38904 | 1195 ft | 128 kts | 76° |
| 2026-05-05 09:06 | 49.58788 | 8.40183 | 1247 ft | 130 kts | 63° |
| 2026-05-05 09:06 | 49.59200 | 8.41417 | 1289 ft | 131 kts | 62° |
| 2026-05-05 09:06 | 49.59640 | 8.42645 | 1290 ft | 132 kts | 56° |
| 2026-05-05 09:06 | 49.60418 | 8.43229 | 1132 ft | 131 kts | 351° |
| 2026-05-05 09:07 | 49.61123 | 8.42544 | 752 ft | 113 kts | 311° |
| 2026-05-05 09:07 | 49.61515 | 8.41620 | 754 ft | 83 kts | 288° |
| 2026-05-05 09:07 | 49.61467 | 8.40824 | 705 ft | 73 kts | 265° |
| 2026-05-05 09:07 | 49.61420 | 8.40057 | 695 ft | 74 kts | 262° |
| 2026-05-05 09:08 | 49.61339 | 8.39260 | 675 ft | 78 kts | 257° |
| 2026-05-05 09:08 | 49.61167 | 8.38444 | 520 ft | 79 kts | 248° |
| 2026-05-05 09:08 | 49.60931 | 8.37704 | 387 ft | 76 kts | 245° |
| 2026-05-05 09:08 | 49.60706 | 8.36990 | 296 ft | 66 kts | 244° |
| 2026-05-05 09:09 | 49.60604 | 8.36683 | 299 ft | 10 kts | 216° |
| 2026-05-05 09:09 | 49.60566 | 8.36703 | 300 ft | 4 kts | 153° |
| 2026-05-05 09:09 | 49.60550 | 8.36721 | 299 ft | 1 kts | 120° |
| 2026-05-05 09:09 | 49.60548 | 8.36748 | 299 ft | 3 kts | 90° |
| 2026-05-05 09:10 | 49.60551 | 8.36785 | 299 ft | 4 kts | 68° |
| 2026-05-05 09:10 | 49.60552 | 8.36832 | 298 ft | 1 kts | 144° |
| 2026-05-05 09:10 | 49.60550 | 8.36830 | 299 ft | 0 kts | 251° |